Time;durP1;ratioP1;P1;durP2;ratioP2;P2;SDS_P1;SDS_P2;PMS_P1;PMS_P2;Temp;Humidity;BMP_temperature;BMP_pressure;BME280_temperature;BME280_humidity;BME280_pressure;Samples;Min_cycle;Max_cycle;Signal;HPM_P1;HPM_P2
2022/09/29 00:02:01;;;;;;;10.85;3.78;;;;;;;;;;5043495;28;20437;-69
2022/09/29 00:04:26;;;;;;;7.47;3.78;;;;;;;;;;5047999;28;20024;-72
2022/09/29 00:06:51;;;;;;;9.38;3.85;;;;;;;;;;5050879;28;20017;-69
2022/09/29 00:09:17;;;;;;;8.00;3.60;;;;;;;;;;5049495;28;20017;-71
2022/09/29 00:11:42;;;;;;;6.82;3.47;;;;;;;;;;5048733;28;20015;-67
2022/09/29 00:14:08;;;;;;;5.85;3.10;;;;;;;;;;5049418;28;20040;-65
2022/09/29 00:16:33;;;;;;;7.35;3.88;;;;;;;;;;5029434;28;20665;-71
2022/09/29 00:18:58;;;;;;;9.40;3.80;;;;;;;;;;5047209;28;20047;-68
2022/09/29 00:21:23;;;;;;;8.80;3.80;;;;;;;;;;5052508;28;20017;-69
2022/09/29 00:23:49;;;;;;;7.57;3.78;;;;;;;;;;5057776;28;20024;-68
2022/09/29 00:26:16;;;;;;;7.38;3.70;;;;;;;;;;5047262;28;20100;-68
2022/09/29 00:28:45;;;;;;;7.68;3.72;;;;;;;;;;5046414;28;20039;-66
2022/09/29 00:31:11;;;;;;;8.10;4.15;;;;;;;;;;5052426;28;20398;-69
2022/09/29 00:33:36;;;;;;;10.73;4.15;;;;;;;;;;5052757;28;20025;-68
2022/09/29 00:36:04;;;;;;;13.57;4.07;;;;;;;;;;5052961;28;20074;-67
2022/09/29 00:38:29;;;;;;;7.85;3.78;;;;;;;;;;5057955;28;20021;-69
2022/09/29 00:40:55;;;;;;;8.30;4.45;;;;;;;;;;5051137;28;20054;-68
2022/09/29 00:43:40;;;;;;;9.90;4.90;;;;;;;;;;5052046;28;20020;-71
2022/09/29 00:46:06;;;;;;;8.32;4.13;;;;;;;;;;5050635;28;20025;-69
2022/09/29 00:48:31;;;;;;;8.98;4.63;;;;;;;;;;5050043;28;20012;-68
2022/09/29 00:50:57;;;;;;;9.55;4.05;;;;;;;;;;5051416;28;20032;-67
2022/09/29 00:53:24;;;;;;;9.85;4.15;;;;;;;;;;5021629;28;20029;-69
2022/09/29 00:55:52;;;;;;;7.10;4.07;;;;;;;;;;5050378;28;20049;-67
2022/09/29 00:58:24;;;;;;;9.57;4.28;;;;;;;;;;5049817;28;20021;-68
2022/09/29 01:00:49;;;;;;;8.50;4.35;;;;;;;;;;5051094;28;20013;-68
2022/09/29 01:03:18;;;;;;;13.05;4.25;;;;;;;;;;5050272;28;20131;-66
2022/09/29 01:05:50;;;;;;;9.07;4.00;;;;;;;;;;5052741;28;20013;-68
2022/09/29 01:08:22;;;;;;;7.22;3.80;;;;;;;;;;5051707;28;20596;-66
2022/09/29 01:10:49;;;;;;;9.48;4.72;;;;;;;;;;5051674;28;20021;-68
2022/09/29 01:13:14;;;;;;;9.75;4.43;;;;;;;;;;5050719;28;20528;-66
2022/09/29 01:15:40;;;;;;;9.60;4.70;;;;;;;;;;5052500;28;20025;-70
2022/09/29 01:18:05;;;;;;;9.75;4.60;;;;;;;;;;5051019;28;20374;-67
2022/09/29 01:20:32;;;;;;;10.27;4.82;;;;;;;;;;5052241;28;20127;-69
2022/09/29 01:22:57;;;;;;;10.60;4.57;;;;;;;;;;5061131;28;20533;-67
2022/09/29 01:25:22;;;;;;;9.33;4.53;;;;;;;;;;5051693;28;20120;-67
2022/09/29 01:27:57;;;;;;;10.40;4.75;;;;;;;;;;5051029;28;20238;-67
2022/09/29 01:30:36;;;;;;;9.95;3.95;;;;;;;;;;5052525;28;20009;-69
2022/09/29 01:33:10;;;;;;;7.85;3.85;;;;;;;;;;5051931;28;20091;-68
2022/09/29 01:35:54;;;;;;;9.27;4.53;;;;;;;;;;5051644;28;20021;-67
2022/09/29 01:38:22;;;;;;;12.25;4.22;;;;;;;;;;5055767;28;20016;-68
2022/09/29 01:40:53;;;;;;;10.93;3.85;;;;;;;;;;5049281;28;20017;-67
2022/09/29 01:43:30;;;;;;;10.05;4.50;;;;;;;;;;5050493;28;20021;-69
2022/09/29 01:45:59;;;;;;;10.35;4.05;;;;;;;;;;5051231;28;20013;-66
2022/09/29 01:48:28;;;;;;;8.60;4.50;;;;;;;;;;5050897;28;20024;-68
2022/09/29 01:50:55;;;;;;;8.68;4.22;;;;;;;;;;5034096;28;20024;-68
2022/09/29 01:53:29;;;;;;;8.50;3.95;;;;;;;;;;5016063;28;20467;-69
2022/09/29 01:55:57;;;;;;;9.23;4.10;;;;;;;;;;5049341;28;20028;-68
2022/09/29 01:58:26;;;;;;;7.32;3.63;;;;;;;;;;5050145;28;20021;-69
2022/09/29 02:00:52;;;;;;;9.57;4.93;;;;;;;;;;5050223;28;20645;-68
2022/09/29 02:03:18;;;;;;;8.07;4.45;;;;;;;;;;5032767;28;20107;-67
2022/09/29 02:05:49;;;;;;;7.63;4.10;;;;;;;;;;5049958;28;20126;-68
2022/09/29 02:08:19;;;;;;;8.48;4.60;;;;;;;;;;5060537;28;20054;-65
2022/09/29 02:10:51;;;;;;;8.10;3.92;;;;;;;;;;5050502;28;20102;-66
2022/09/29 02:13:17;;;;;;;11.65;4.95;;;;;;;;;;5049018;28;20032;-67
2022/09/29 02:15:44;;;;;;;12.27;4.47;;;;;;;;;;5050177;28;20017;-68
2022/09/29 02:18:12;;;;;;;8.82;4.65;;;;;;;;;;5049977;28;20042;-66
2022/09/29 02:20:37;;;;;;;8.05;4.15;;;;;;;;;;5051169;28;20100;-68
2022/09/29 02:23:02;;;;;;;10.38;4.80;;;;;;;;;;5056744;28;20092;-68
2022/09/29 02:25:28;;;;;;;11.93;5.07;;;;;;;;;;5050631;28;20013;-69
2022/09/29 02:27:53;;;;;;;12.23;5.65;;;;;;;;;;5049705;28;20167;-69
2022/09/29 02:30:19;;;;;;;11.52;4.53;;;;;;;;;;5050926;28;20113;-65
2022/09/29 02:32:46;;;;;;;10.60;4.93;;;;;;;;;;5048474;28;20378;-68
2022/09/29 02:35:12;;;;;;;15.50;4.75;;;;;;;;;;5049332;28;20036;-70
2022/09/29 02:37:46;;;;;;;12.23;5.30;;;;;;;;;;5051885;28;20491;-70
2022/09/29 02:40:31;;;;;;;13.65;6.38;;;;;;;;;;5050154;28;20064;-68
2022/09/29 02:42:56;;;;;;;17.02;5.88;;;;;;;;;;4999192;28;20020;-68
2022/09/29 02:45:22;;;;;;;10.33;5.00;;;;;;;;;;5050479;28;20031;-68
2022/09/29 02:47:54;;;;;;;9.02;4.78;;;;;;;;;;5049646;28;20615;-67
2022/09/29 02:50:34;;;;;;;13.65;4.72;;;;;;;;;;5050925;28;20017;-68
2022/09/29 02:53:02;;;;;;;27.83;8.55;;;;;;;;;;5059225;28;20488;-68
2022/09/29 02:55:34;;;;;;;11.95;5.82;;;;;;;;;;5050963;28;20020;-68
2022/09/29 02:58:06;;;;;;;11.90;5.40;;;;;;;;;;5049662;28;20017;-68
2022/09/29 03:00:31;;;;;;;9.57;5.10;;;;;;;;;;5032752;28;20024;-69
2022/09/29 03:02:57;;;;;;;9.70;4.82;;;;;;;;;;5031760;28;20021;-66
2022/09/29 03:05:22;;;;;;;19.35;5.68;;;;;;;;;;5050687;28;20013;-68
2022/09/29 03:07:48;;;;;;;9.57;4.55;;;;;;;;;;5056441;28;20119;-70
2022/09/29 03:10:14;;;;;;;13.63;4.82;;;;;;;;;;5049831;28;20027;-66
2022/09/29 03:12:39;;;;;;;14.20;5.57;;;;;;;;;;5049604;28;20021;-70
2022/09/29 03:15:06;;;;;;;9.95;5.30;;;;;;;;;;5036937;28;20020;-67
2022/09/29 03:17:31;;;;;;;10.35;5.32;;;;;;;;;;5048794;28;20108;-73
2022/09/29 03:19:56;;;;;;;20.35;5.10;;;;;;;;;;5050491;28;20109;-68
2022/09/29 03:22:22;;;;;;;12.90;5.10;;;;;;;;;;5018648;28;20107;-69
2022/09/29 03:24:47;;;;;;;12.35;5.63;;;;;;;;;;5050174;28;20020;-68
2022/09/29 03:27:12;;;;;;;14.10;5.40;;;;;;;;;;5048081;28;20059;-66
2022/09/29 03:29:37;;;;;;;10.77;5.90;;;;;;;;;;5037581;28;20115;-70
2022/09/29 03:32:03;;;;;;;13.50;5.40;;;;;;;;;;5049551;28;20052;-67
2022/09/29 03:34:28;;;;;;;11.02;5.40;;;;;;;;;;5031882;28;20073;-67
2022/09/29 03:36:53;;;;;;;14.95;5.20;;;;;;;;;;5048868;28;20051;-71
2022/09/29 03:39:19;;;;;;;10.70;5.53;;;;;;;;;;5061529;28;20580;-68
2022/09/29 03:41:45;;;;;;;12.55;5.72;;;;;;;;;;5047475;28;20009;-68
2022/09/29 03:44:10;;;;;;;12.63;5.80;;;;;;;;;;5048775;28;20009;-70
2022/09/29 03:46:35;;;;;;;15.85;5.93;;;;;;;;;;5048709;28;20013;-67
2022/09/29 03:49:00;;;;;;;14.07;5.93;;;;;;;;;;5049419;28;20017;-69
2022/09/29 03:51:25;;;;;;;14.48;6.13;;;;;;;;;;5049956;28;20104;-67
2022/09/29 03:53:51;;;;;;;16.85;6.05;;;;;;;;;;5057209;28;20044;-66
2022/09/29 03:56:16;;;;;;;14.73;5.53;;;;;;;;;;5048471;28;20092;-67
2022/09/29 03:58:41;;;;;;;16.02;5.45;;;;;;;;;;5047765;28;20025;-67
2022/09/29 04:01:06;;;;;;;15.75;5.60;;;;;;;;;;5045816;28;20005;-68
2022/09/29 04:03:32;;;;;;;16.23;6.35;;;;;;;;;;5047513;28;20012;-66
2022/09/29 04:05:57;;;;;;;14.98;5.13;;;;;;;;;;5049272;28;20036;-70
2022/09/29 04:08:22;;;;;;;12.30;5.97;;;;;;;;;;5048650;28;20043;-67
2022/09/29 04:10:47;;;;;;;11.60;5.80;;;;;;;;;;5025841;28;20029;-67
2022/09/29 04:13:13;;;;;;;11.57;5.53;;;;;;;;;;5035117;28;20478;-68
2022/09/29 04:15:38;;;;;;;14.93;5.47;;;;;;;;;;5037863;28;20050;-65
2022/09/29 04:18:04;;;;;;;14.77;5.30;;;;;;;;;;5027023;28;20029;-68
2022/09/29 04:20:30;;;;;;;11.15;5.18;;;;;;;;;;5043769;28;20013;-67
2022/09/29 04:22:55;;;;;;;11.05;5.03;;;;;;;;;;5048790;28;20027;-68
2022/09/29 04:25:20;;;;;;;15.05;5.93;;;;;;;;;;5039320;28;20166;-69
2022/09/29 04:27:46;;;;;;;13.23;6.10;;;;;;;;;;5017629;28;20093;-68
2022/09/29 04:30:11;;;;;;;12.60;5.13;;;;;;;;;;5045884;28;20414;-68
2022/09/29 04:32:36;;;;;;;15.73;5.30;;;;;;;;;;5048110;28;20030;-70
2022/09/29 04:35:01;;;;;;;11.93;5.20;;;;;;;;;;5047112;28;20031;-69
2022/09/29 04:37:27;;;;;;;12.70;5.47;;;;;;;;;;5040134;28;20397;-69
2022/09/29 04:39:53;;;;;;;11.85;6.05;;;;;;;;;;5047871;28;20074;-69
2022/09/29 04:42:19;;;;;;;13.38;5.68;;;;;;;;;;5021161;28;20105;-69
2022/09/29 04:44:44;;;;;;;12.50;5.95;;;;;;;;;;5045088;28;20108;-66
2022/09/29 04:47:09;;;;;;;17.27;5.88;;;;;;;;;;5029513;28;20079;-68
2022/09/29 04:49:34;;;;;;;14.57;5.53;;;;;;;;;;5048323;28;20020;-68
2022/09/29 04:52:00;;;;;;;11.75;5.45;;;;;;;;;;5048665;28;20017;-68
2022/09/29 04:54:28;;;;;;;13.20;6.20;;;;;;;;;;5061827;28;20462;-69
2022/09/29 04:56:53;;;;;;;13.02;5.90;;;;;;;;;;5046918;28;20070;-66
2022/09/29 04:59:19;;;;;;;13.63;5.90;;;;;;;;;;5037098;28;20765;-68
2022/09/29 05:01:44;;;;;;;18.13;6.10;;;;;;;;;;5038000;28;20468;-69
2022/09/29 05:04:09;;;;;;;19.63;6.43;;;;;;;;;;5046413;28;20457;-72
2022/09/29 05:06:38;;;;;;;15.68;6.50;;;;;;;;;;5067111;22;20044;-69
2022/09/29 05:09:03;;;;;;;21.10;7.15;;;;;;;;;;5046295;28;20086;-69
2022/09/29 05:11:28;;;;;;;27.83;9.13;;;;;;;;;;5026951;28;20068;-70
2022/09/29 05:13:54;;;;;;;19.05;7.95;;;;;;;;;;5048363;28;20104;-67
2022/09/29 05:16:19;;;;;;;23.73;9.07;;;;;;;;;;5048574;28;20036;-66
2022/09/29 05:18:44;;;;;;;26.77;11.52;;;;;;;;;;5037789;28;20021;-72
2022/09/29 05:21:09;;;;;;;24.23;8.20;;;;;;;;;;5031563;28;20036;-67
2022/09/29 05:23:35;;;;;;;22.55;7.65;;;;;;;;;;5023859;28;20047;-69
2022/09/29 05:26:04;;;;;;;19.90;7.43;;;;;;;;;;5040937;28;20090;-67
2022/09/29 05:28:29;;;;;;;21.23;8.85;;;;;;;;;;5030371;28;20076;-66
2022/09/29 05:30:59;;;;;;;25.70;8.80;;;;;;;;;;5041259;28;20017;-68
2022/09/29 05:33:24;;;;;;;19.42;7.45;;;;;;;;;;5038905;28;20075;-68
2022/09/29 05:35:50;;;;;;;17.60;8.10;;;;;;;;;;5044177;28;20021;-67
2022/09/29 05:38:15;;;;;;;23.75;9.10;;;;;;;;;;5026520;28;20458;-68
2022/09/29 05:40:40;;;;;;;16.67;8.25;;;;;;;;;;5032553;28;20017;-65
2022/09/29 05:43:06;;;;;;;25.73;7.85;;;;;;;;;;5029074;28;20489;-67
2022/09/29 05:45:31;;;;;;;24.63;7.65;;;;;;;;;;5043909;28;20478;-66
2022/09/29 05:47:56;;;;;;;18.65;7.93;;;;;;;;;;5032259;28;20047;-67
2022/09/29 05:50:22;;;;;;;24.00;8.20;;;;;;;;;;5026477;28;20033;-68
2022/09/29 05:52:48;;;;;;;21.80;8.52;;;;;;;;;;5036925;28;20018;-67
2022/09/29 05:55:13;;;;;;;16.40;7.53;;;;;;;;;;5033745;28;20078;-66
2022/09/29 05:57:38;;;;;;;19.10;8.70;;;;;;;;;;5036902;28;20059;-65
2022/09/29 06:00:05;;;;;;;18.15;8.88;;;;;;;;;;5051520;28;20081;-67
2022/09/29 06:02:30;;;;;;;24.50;8.52;;;;;;;;;;5027131;28;20041;-68
2022/09/29 06:04:55;;;;;;;27.52;9.18;;;;;;;;;;5031839;28;20594;-70
2022/09/29 06:07:20;;;;;;;27.85;11.20;;;;;;;;;;5031893;28;20040;-68
2022/09/29 06:09:46;;;;;;;27.13;10.23;;;;;;;;;;5052483;28;20043;-65
2022/09/29 06:12:11;;;;;;;22.83;9.65;;;;;;;;;;5031894;28;20017;-67
2022/09/29 06:14:36;;;;;;;32.05;10.38;;;;;;;;;;5039066;28;20021;-69
2022/09/29 06:17:02;;;;;;;21.60;9.45;;;;;;;;;;5049673;28;20021;-66
2022/09/29 06:19:27;;;;;;;25.52;9.15;;;;;;;;;;5051906;28;20021;-66
2022/09/29 06:21:52;;;;;;;26.10;10.32;;;;;;;;;;5037957;28;20100;-68
2022/09/29 06:24:17;;;;;;;25.25;10.73;;;;;;;;;;5051636;28;20021;-65
2022/09/29 06:26:43;;;;;;;33.58;10.43;;;;;;;;;;5049101;28;20028;-67
2022/09/29 06:29:08;;;;;;;30.65;10.43;;;;;;;;;;5038506;28;20070;-67
2022/09/29 06:31:33;;;;;;;27.05;10.13;;;;;;;;;;5051163;28;20439;-68
2022/09/29 06:34:00;;;;;;;16.90;9.55;;;;;;;;;;5033731;28;20036;-66
2022/09/29 06:39:15;;;;;;;18.77;8.27;;;;;;;;;;5028444;28;20036;-67
2022/09/29 06:41:42;;;;;;;15.00;8.30;;;;;;;;;;5035879;28;20021;-66
2022/09/29 06:44:07;;;;;;;22.70;8.70;;;;;;;;;;5050324;28;20013;-64
2022/09/29 06:46:33;;;;;;;38.08;8.35;;;;;;;;;;5031737;28;20009;-70
2022/09/29 06:48:58;;;;;;;18.77;8.45;;;;;;;;;;5031168;28;20383;-69
2022/09/29 06:51:24;;;;;;;20.25;6.70;;;;;;;;;;5049382;28;20029;-68
2022/09/29 06:53:49;;;;;;;18.23;7.15;;;;;;;;;;5045756;28;20074;-67
2022/09/29 06:56:15;;;;;;;15.48;7.25;;;;;;;;;;5045478;28;20013;-68
2022/09/29 06:58:40;;;;;;;13.65;7.72;;;;;;;;;;5041500;28;20020;-67
2022/09/29 07:01:05;;;;;;;16.50;7.38;;;;;;;;;;5051148;28;20060;-66
2022/09/29 07:03:31;;;;;;;15.05;6.95;;;;;;;;;;5051453;28;20036;-67
2022/09/29 07:05:56;;;;;;;18.65;7.57;;;;;;;;;;5050860;28;20163;-67
2022/09/29 07:08:22;;;;;;;11.68;6.72;;;;;;;;;;5043000;28;20051;-67
2022/09/29 07:10:47;;;;;;;17.20;7.65;;;;;;;;;;5028774;28;20013;-67
2022/09/29 07:13:12;;;;;;;16.55;7.28;;;;;;;;;;5030992;28;20021;-69
2022/09/29 07:15:38;;;;;;;16.75;6.45;;;;;;;;;;5047954;28;20017;-68
2022/09/29 07:18:04;;;;;;;18.85;7.00;;;;;;;;;;5049647;28;20013;-68
2022/09/29 07:20:30;;;;;;;14.40;7.57;;;;;;;;;;5050446;28;20351;-67
2022/09/29 07:22:56;;;;;;;14.35;7.65;;;;;;;;;;5024931;28;20100;-68
2022/09/29 07:25:21;;;;;;;15.73;7.38;;;;;;;;;;5034154;28;20071;-66
2022/09/29 07:27:48;;;;;;;13.10;6.72;;;;;;;;;;5035463;28;20013;-65
2022/09/29 07:30:13;;;;;;;15.35;6.43;;;;;;;;;;5027360;28;20025;-68
2022/09/29 07:32:38;;;;;;;14.55;7.55;;;;;;;;;;5040370;28;20467;-66
2022/09/29 07:35:04;;;;;;;15.85;7.68;;;;;;;;;;5023775;28;20110;-67
2022/09/29 07:37:30;;;;;;;17.52;7.43;;;;;;;;;;5046078;28;20041;-70
2022/09/29 07:39:55;;;;;;;14.40;6.75;;;;;;;;;;5034126;28;20016;-67
2022/09/29 07:42:20;;;;;;;12.23;7.00;;;;;;;;;;5048912;28;20017;-66
2022/09/29 07:44:46;;;;;;;14.38;6.07;;;;;;;;;;5045420;28;20024;-67
2022/09/29 07:47:11;;;;;;;14.95;7.25;;;;;;;;;;5039655;28;20012;-68
2022/09/29 07:49:36;;;;;;;11.38;6.18;;;;;;;;;;5049516;28;20062;-66
2022/09/29 07:52:01;;;;;;;16.80;6.72;;;;;;;;;;5049589;28;20024;-68
2022/09/29 07:54:26;;;;;;;14.40;6.05;;;;;;;;;;5034058;28;20056;-67
2022/09/29 07:56:52;;;;;;;19.80;7.30;;;;;;;;;;5030175;28;20553;-68
2022/09/29 07:59:17;;;;;;;16.98;8.02;;;;;;;;;;5035823;28;20021;-66
2022/09/29 08:01:42;;;;;;;16.08;7.85;;;;;;;;;;5031911;28;20020;-68
2022/09/29 08:04:07;;;;;;;12.55;6.60;;;;;;;;;;5025757;28;20097;-68
2022/09/29 08:06:32;;;;;;;13.98;6.30;;;;;;;;;;5035666;28;20486;-69
2022/09/29 08:08:59;;;;;;;15.80;5.78;;;;;;;;;;5031794;28;20048;-68
2022/09/29 08:11:24;;;;;;;16.45;6.20;;;;;;;;;;5038691;28;20114;-66
2022/09/29 08:13:50;;;;;;;12.63;6.47;;;;;;;;;;5048600;28;20100;-67
2022/09/29 08:16:15;;;;;;;14.57;5.78;;;;;;;;;;5048199;28;20024;-67
2022/09/29 08:18:41;;;;;;;10.63;6.07;;;;;;;;;;5031118;28;20025;-69
2022/09/29 08:21:06;;;;;;;13.65;7.00;;;;;;;;;;5040421;28;20020;-65
2022/09/29 08:23:38;;;;;;;16.92;7.40;;;;;;;;;;5031957;28;20493;-67
2022/09/29 08:26:05;;;;;;;11.73;6.85;;;;;;;;;;5048365;28;20016;-66
2022/09/29 08:28:31;;;;;;;11.18;6.35;;;;;;;;;;5016420;28;20025;-66
2022/09/29 08:30:56;;;;;;;12.18;6.47;;;;;;;;;;5048650;28;20148;-68
2022/09/29 08:33:22;;;;;;;12.45;6.82;;;;;;;;;;5044941;28;20057;-68
2022/09/29 08:35:53;;;;;;;18.85;6.47;;;;;;;;;;5039629;28;20036;-69
2022/09/29 08:38:19;;;;;;;13.95;7.22;;;;;;;;;;5034827;28;20224;-67
2022/09/29 08:40:44;;;;;;;15.63;6.95;;;;;;;;;;5022011;28;20093;-68
2022/09/29 08:43:12;;;;;;;11.02;5.97;;;;;;;;;;5028151;28;20100;-70
2022/09/29 08:45:41;;;;;;;14.07;7.50;;;;;;;;;;5048591;28;20020;-67
2022/09/29 08:48:16;;;;;;;17.58;7.38;;;;;;;;;;5047912;28;20032;-68
2022/09/29 08:50:45;;;;;;;14.60;6.72;;;;;;;;;;5050088;28;20028;-69
2022/09/29 08:53:12;;;;;;;12.15;6.88;;;;;;;;;;5047366;28;20013;-68
2022/09/29 08:55:40;;;;;;;11.13;7.10;;;;;;;;;;5028431;28;20079;-67
2022/09/29 08:58:08;;;;;;;14.65;7.32;;;;;;;;;;5051452;28;20046;-69
2022/09/29 09:00:39;;;;;;;13.98;7.15;;;;;;;;;;5021113;28;20025;-69
2022/09/29 09:03:23;;;;;;;18.95;7.15;;;;;;;;;;5040634;28;20043;-68
2022/09/29 09:05:51;;;;;;;12.82;7.10;;;;;;;;;;5039545;28;20028;-70
2022/09/29 09:08:35;;;;;;;19.70;7.90;;;;;;;;;;5023539;28;20695;-69
2022/09/29 09:11:15;;;;;;;14.63;6.93;;;;;;;;;;5052682;28;20029;-66
2022/09/29 09:14:03;;;;;;;13.25;7.03;;;;;;;;;;5050576;28;20024;-65
2022/09/29 09:16:31;;;;;;;18.15;10.10;;;;;;;;;;5043830;28;20116;-67
2022/09/29 09:19:14;;;;;;;16.67;7.78;;;;;;;;;;5052385;28;20025;-68
2022/09/29 09:21:41;;;;;;;20.27;7.65;;;;;;;;;;5035062;28;20361;-67
2022/09/29 09:24:10;;;;;;;13.15;6.68;;;;;;;;;;5049195;28;20084;-68
2022/09/29 09:26:41;;;;;;;12.55;6.88;;;;;;;;;;5050853;28;20051;-67
2022/09/29 09:29:20;;;;;;;14.48;6.85;;;;;;;;;;5037310;28;20112;-69
2022/09/29 09:31:52;;;;;;;12.02;5.70;;;;;;;;;;5032454;28;20039;-66
2022/09/29 09:34:17;;;;;;;14.77;7.18;;;;;;;;;;5032418;28;20021;-67
2022/09/29 09:37:05;;;;;;;12.98;6.43;;;;;;;;;;5049266;28;20429;-70
2022/09/29 09:39:33;;;;;;;17.40;7.60;;;;;;;;;;5027748;28;20033;-67
2022/09/29 09:42:01;;;;;;;15.03;6.90;;;;;;;;;;5036939;28;20021;-67
2022/09/29 09:44:36;;;;;;;14.27;6.05;;;;;;;;;;5051259;28;20013;-68
2022/09/29 09:47:20;;;;;;;13.48;6.28;;;;;;;;;;5042075;28;20044;-65
2022/09/29 09:49:50;;;;;;;15.68;6.97;;;;;;;;;;5032788;28;20421;-68
2022/09/29 09:52:23;;;;;;;13.63;5.00;;;;;;;;;;5032742;28;20016;-68
2022/09/29 09:54:51;;;;;;;13.68;6.95;;;;;;;;;;5035262;28;20430;-66
2022/09/29 09:57:25;;;;;;;12.55;6.68;;;;;;;;;;5044039;28;20056;-67
2022/09/29 09:59:59;;;;;;;14.45;7.53;;;;;;;;;;5051918;28;20012;-69
2022/09/29 10:02:25;;;;;;;11.75;6.55;;;;;;;;;;5037161;28;20033;-72
2022/09/29 10:04:51;;;;;;;11.18;5.65;;;;;;;;;;5040687;28;20048;-68
2022/09/29 10:07:17;;;;;;;15.23;7.00;;;;;;;;;;5044687;28;20022;-66
2022/09/29 10:09:43;;;;;;;13.65;7.05;;;;;;;;;;5041115;28;20051;-69
2022/09/29 10:12:13;;;;;;;11.15;6.63;;;;;;;;;;5049482;28;20815;-68
2022/09/29 10:14:39;;;;;;;10.65;6.45;;;;;;;;;;5014262;28;20021;-68
2022/09/29 10:17:09;;;;;;;10.48;5.60;;;;;;;;;;5043734;28;20009;-68
2022/09/29 10:19:52;;;;;;;16.63;7.55;;;;;;;;;;5031741;28;20060;-71
2022/09/29 10:22:18;;;;;;;14.10;6.75;;;;;;;;;;5045105;28;20100;-68
2022/09/29 10:24:43;;;;;;;12.15;6.43;;;;;;;;;;5043417;28;20669;-67
2022/09/29 10:27:10;;;;;;;10.35;6.35;;;;;;;;;;5031977;28;20818;-66
2022/09/29 10:29:40;;;;;;;11.55;5.53;;;;;;;;;;5039348;28;20048;-66
2022/09/29 10:32:08;;;;;;;12.25;6.43;;;;;;;;;;5037427;28;20021;-68
2022/09/29 10:34:35;;;;;;;12.43;6.25;;;;;;;;;;5025232;28;20352;-67
2022/09/29 10:37:06;;;;;;;9.35;5.00;;;;;;;;;;5024489;28;20035;-68
2022/09/29 10:39:42;;;;;;;12.98;5.18;;;;;;;;;;5022448;28;20025;-68
2022/09/29 10:42:24;;;;;;;10.98;5.00;;;;;;;;;;5039479;28;20021;-69
2022/09/29 10:44:59;;;;;;;6.65;3.33;;;;;;;;;;5046147;28;20067;-68
2022/09/29 10:47:25;;;;;;;8.55;3.50;;;;;;;;;;5042257;28;20527;-69
2022/09/29 10:50:09;;;;;;;5.10;3.05;;;;;;;;;;5027197;28;20017;-68
2022/09/29 10:52:35;;;;;;;6.43;2.72;;;;;;;;;;5045461;28;20390;-68
2022/09/29 10:55:04;;;;;;;15.13;3.53;;;;;;;;;;5035250;28;20037;-66
2022/09/29 10:57:31;;;;;;;7.05;3.50;;;;;;;;;;5044317;28;20017;-68
2022/09/29 10:59:57;;;;;;;6.80;4.20;;;;;;;;;;5050890;28;20017;-69
2022/09/29 11:02:25;;;;;;;10.70;4.40;;;;;;;;;;5035378;28;20041;-69
2022/09/29 11:04:52;;;;;;;8.57;4.22;;;;;;;;;;5039318;28;20040;-67
2022/09/29 11:07:17;;;;;;;8.82;4.72;;;;;;;;;;5059180;22;20092;-70
2022/09/29 11:09:43;;;;;;;8.25;4.30;;;;;;;;;;5032518;28;20542;-67
2022/09/29 11:12:27;;;;;;;12.25;5.03;;;;;;;;;;5049343;28;20021;-67
2022/09/29 11:14:53;;;;;;;10.25;4.75;;;;;;;;;;5049753;28;20033;-70
2022/09/29 11:17:36;;;;;;;7.40;4.30;;;;;;;;;;5024971;28;20418;-71
2022/09/29 11:20:03;;;;;;;8.48;4.63;;;;;;;;;;5030500;28;20487;-67
2022/09/29 11:22:37;;;;;;;12.68;5.53;;;;;;;;;;5015107;28;20103;-68
2022/09/29 11:25:09;;;;;;;8.50;4.65;;;;;;;;;;5029510;28;20013;-70
2022/09/29 11:27:42;;;;;;;9.88;4.60;;;;;;;;;;5027398;28;20483;-70
2022/09/29 11:30:16;;;;;;;9.55;5.25;;;;;;;;;;5026393;28;20017;-71
2022/09/29 11:32:44;;;;;;;10.52;4.90;;;;;;;;;;5025852;28;20014;-71
2022/09/29 11:35:34;;;;;;;9.65;4.32;;;;;;;;;;5027443;28;20586;-73
2022/09/29 11:41:24;;;;;;;8.65;4.53;;;;;;;;;;5029999;28;20028;-74
2022/09/29 11:43:52;;;;;;;9.10;4.78;;;;;;;;;;5038680;28;20041;-75
2022/09/29 11:46:25;;;;;;;7.32;4.30;;;;;;;;;;5029057;28;20005;-73
2022/09/29 11:48:52;;;;;;;8.40;5.10;;;;;;;;;;5029194;28;20018;-69
2022/09/29 11:51:18;;;;;;;11.80;5.28;;;;;;;;;;5029000;28;20021;-72
2022/09/29 11:53:56;;;;;;;9.18;4.35;;;;;;;;;;5028980;28;20087;-70
2022/09/29 11:56:40;;;;;;;11.05;4.18;;;;;;;;;;5028253;28;20018;-70
2022/09/29 11:59:14;;;;;;;8.73;4.47;;;;;;;;;;5023520;28;20081;-73
2022/09/29 12:01:51;;;;;;;14.02;4.55;;;;;;;;;;5021550;28;20040;-70
2022/09/29 12:04:22;;;;;;;10.30;4.95;;;;;;;;;;5027933;28;20024;-67
2022/09/29 12:06:50;;;;;;;6.82;3.78;;;;;;;;;;5011625;28;20015;-69
2022/09/29 12:09:18;;;;;;;6.20;3.83;;;;;;;;;;5029652;28;20055;-71
2022/09/29 12:11:50;;;;;;;11.30;4.38;;;;;;;;;;5029505;28;20021;-71
2022/09/29 12:14:23;;;;;;;11.25;4.40;;;;;;;;;;5029924;28;20025;-71
2022/09/29 12:16:51;;;;;;;7.20;4.63;;;;;;;;;;5028586;28;20013;-70
2022/09/29 12:19:19;;;;;;;11.82;3.85;;;;;;;;;;5033350;28;20045;-70
2022/09/29 12:21:49;;;;;;;8.77;4.53;;;;;;;;;;5034503;28;20100;-68
2022/09/29 12:24:21;;;;;;;6.72;4.22;;;;;;;;;;5027036;28;20025;-66
2022/09/29 12:26:48;;;;;;;8.15;4.53;;;;;;;;;;5020173;28;20016;-69
2022/09/29 12:29:16;;;;;;;11.73;5.40;;;;;;;;;;5027485;28;20029;-70
2022/09/29 12:31:45;;;;;;;16.98;5.40;;;;;;;;;;5024497;28;20120;-68
2022/09/29 12:34:10;;;;;;;7.90;4.35;;;;;;;;;;5023416;28;20105;-69
2022/09/29 12:36:52;;;;;;;7.40;4.13;;;;;;;;;;5021754;28;20124;-70
2022/09/29 12:39:37;;;;;;;9.32;3.67;;;;;;;;;;5020883;28;20497;-69
2022/09/29 12:42:22;;;;;;;8.55;4.10;;;;;;;;;;5022640;28;20199;-69
2022/09/29 12:45:05;;;;;;;8.20;3.95;;;;;;;;;;5020655;28;20541;-69
2022/09/29 12:47:42;;;;;;;8.73;3.95;;;;;;;;;;5002350;28;20128;-68
2022/09/29 12:50:16;;;;;;;7.35;4.05;;;;;;;;;;5022308;28;20101;-69
2022/09/29 12:52:50;;;;;;;9.93;3.88;;;;;;;;;;5001696;28;20105;-69
2022/09/29 12:55:25;;;;;;;8.85;3.75;;;;;;;;;;5020775;28;20041;-68
2022/09/29 12:57:53;;;;;;;7.72;4.45;;;;;;;;;;5019782;28;20076;-68
2022/09/29 13:00:18;;;;;;;10.10;4.25;;;;;;;;;;5027432;28;20083;-69
2022/09/29 13:02:51;;;;;;;6.97;3.30;;;;;;;;;;5027490;28;20140;-70
2022/09/29 13:05:28;;;;;;;5.78;2.72;;;;;;;;;;5010559;28;20010;-70
2022/09/29 13:07:53;;;;;;;7.68;3.25;;;;;;;;;;5009585;28;20049;-71
2022/09/29 13:10:37;;;;;;;5.68;3.00;;;;;;;;;;5029436;28;20037;-69
2022/09/29 13:13:11;;;;;;;5.10;2.67;;;;;;;;;;5028797;28;20017;-67
2022/09/29 13:15:57;;;;;;;5.25;3.17;;;;;;;;;;5028288;28;20111;-68
2022/09/29 13:18:32;;;;;;;6.32;3.70;;;;;;;;;;5028807;28;20028;-71
2022/09/29 13:21:16;;;;;;;5.55;3.20;;;;;;;;;;5028593;28;20017;-70
2022/09/29 13:23:44;;;;;;;8.13;3.38;;;;;;;;;;5028020;28;20013;-71
2022/09/29 13:26:09;;;;;;;6.47;3.43;;;;;;;;;;5028443;28;20022;-69
2022/09/29 13:28:38;;;;;;;5.20;2.50;;;;;;;;;;5028373;28;20931;-69
2022/09/29 13:31:06;;;;;;;6.30;2.50;;;;;;;;;;5010494;28;20014;-65
2022/09/29 13:33:32;;;;;;;5.55;2.00;;;;;;;;;;5006789;28;20026;-71
2022/09/29 13:35:58;;;;;;;5.57;2.40;;;;;;;;;;5020247;28;20086;-71
2022/09/29 13:38:25;;;;;;;4.68;2.38;;;;;;;;;;5030599;28;20553;-70
2022/09/29 13:41:09;;;;;;;5.55;2.60;;;;;;;;;;5032058;28;20075;-70
2022/09/29 13:43:39;;;;;;;6.30;2.80;;;;;;;;;;5031568;28;20467;-67
2022/09/29 13:46:43;;;;;;;4.05;2.40;;;;;;;;;;5031752;28;20051;-70
2022/09/29 13:49:08;;;;;;;3.72;1.90;;;;;;;;;;4951711;28;20019;-70
2022/09/29 13:51:44;;;;;;;4.83;2.20;;;;;;;;;;4950703;28;20026;-71
2022/09/29 13:54:18;;;;;;;4.70;2.30;;;;;;;;;;4960826;28;20291;-71
2022/09/29 13:56:46;;;;;;;5.93;2.10;;;;;;;;;;4949682;28;20023;-66
2022/09/29 13:59:14;;;;;;;10.85;2.10;;;;;;;;;;4949637;29;20031;-68
2022/09/29 14:01:40;;;;;;;7.10;2.20;;;;;;;;;;4950685;29;20372;-70
2022/09/29 14:04:23;;;;;;;3.92;2.20;;;;;;;;;;4950368;28;20823;-70
2022/09/29 14:06:48;;;;;;;6.15;2.08;;;;;;;;;;4949779;28;20027;-70
2022/09/29 14:09:21;;;;;;;5.32;2.40;;;;;;;;;;4956175;28;20393;-69
2022/09/29 14:11:48;;;;;;;6.00;2.53;;;;;;;;;;4949730;28;20027;-69
2022/09/29 14:14:16;;;;;;;5.90;1.85;;;;;;;;;;4949582;29;20509;-67
2022/09/29 14:17:00;;;;;;;3.70;2.05;;;;;;;;;;4948902;28;20047;-70
2022/09/29 14:19:29;;;;;;;4.07;2.15;;;;;;;;;;4971072;28;20051;-69
2022/09/29 14:21:56;;;;;;;4.15;1.90;;;;;;;;;;5030556;28;20005;-69
2022/09/29 14:24:33;;;;;;;9.93;2.42;;;;;;;;;;5030934;28;20028;-69
2022/09/29 14:27:17;;;;;;;8.27;2.38;;;;;;;;;;5028844;28;20412;-68
2022/09/29 14:29:50;;;;;;;5.38;2.17;;;;;;;;;;5030456;28;20052;-72
2022/09/29 14:32:18;;;;;;;5.43;2.70;;;;;;;;;;5013220;28;20028;-67
2022/09/29 14:34:44;;;;;;;9.02;3.03;;;;;;;;;;5030488;28;20498;-68
2022/09/29 14:37:15;;;;;;;5.07;2.10;;;;;;;;;;5029276;28;20092;-71
2022/09/29 14:39:40;;;;;;;6.10;2.42;;;;;;;;;;5020717;28;20025;-70
2022/09/29 14:42:12;;;;;;;6.95;2.22;;;;;;;;;;5029829;28;20026;-66
2022/09/29 14:53:11;;;;;;;9.75;2.97;;;;;;;;;;5030848;28;19970;-69
2022/09/29 14:55:39;;;;;;;7.55;2.53;;;;;;;;;;5023216;28;20440;-67
2022/09/29 14:58:20;;;;;;;7.75;2.47;;;;;;;;;;5028707;28;20079;-69